sensor_id;sensor_type;location;lat;lon;timestamp;temperature;humidity
25951;DHT22;13748;52.240;6.002;2022-08-18T00:01:13;20.10;99.90
25951;DHT22;13748;52.240;6.002;2022-08-18T00:03:44;20.10;99.90
25951;DHT22;13748;52.240;6.002;2022-08-18T00:06:26;20.10;99.90
25951;DHT22;13748;52.240;6.002;2022-08-18T00:08:55;20.10;99.90
25951;DHT22;13748;52.240;6.002;2022-08-18T00:11:22;20.10;99.90
25951;DHT22;13748;52.240;6.002;2022-08-18T00:13:50;20.10;99.90
25951;DHT22;13748;52.240;6.002;2022-08-18T00:16:17;20.10;99.90
25951;DHT22;13748;52.240;6.002;2022-08-18T00:18:43;20.10;99.90
25951;DHT22;13748;52.240;6.002;2022-08-18T00:21:13;20.10;99.90
25951;DHT22;13748;52.240;6.002;2022-08-18T00:23:44;20.10;99.90
25951;DHT22;13748;52.240;6.002;2022-08-18T00:26:14;20.10;99.90
25951;DHT22;13748;52.240;6.002;2022-08-18T00:28:41;20.10;99.90
25951;DHT22;13748;52.240;6.002;2022-08-18T00:31:09;20.10;99.90
25951;DHT22;13748;52.240;6.002;2022-08-18T00:33:41;20.10;99.90
25951;DHT22;13748;52.240;6.002;2022-08-18T00:36:13;20.10;99.90
25951;DHT22;13748;52.240;6.002;2022-08-18T00:38:46;20.10;99.90
25951;DHT22;13748;52.240;6.002;2022-08-18T00:41:13;20.10;99.90
25951;DHT22;13748;52.240;6.002;2022-08-18T00:46:50;20.10;99.90
25951;DHT22;13748;52.240;6.002;2022-08-18T00:49:17;20.10;99.90
25951;DHT22;13748;52.240;6.002;2022-08-18T00:51:46;20.10;99.90
25951;DHT22;13748;52.240;6.002;2022-08-18T00:54:27;20.10;99.90
25951;DHT22;13748;52.240;6.002;2022-08-18T00:56:58;20.10;99.90
25951;DHT22;13748;52.240;6.002;2022-08-18T01:02:12;20.10;99.90
25951;DHT22;13748;52.240;6.002;2022-08-18T01:04:55;20.00;99.90
25951;DHT22;13748;52.240;6.002;2022-08-18T01:07:29;20.10;99.90
25951;DHT22;13748;52.240;6.002;2022-08-18T01:09:58;20.00;99.90
25951;DHT22;13748;52.240;6.002;2022-08-18T01:12:26;20.00;99.90
25951;DHT22;13748;52.240;6.002;2022-08-18T01:15:13;20.00;99.90
25951;DHT22;13748;52.240;6.002;2022-08-18T01:18:00;20.10;99.90
25951;DHT22;13748;52.240;6.002;2022-08-18T01:23:47;20.10;99.90
25951;DHT22;13748;52.240;6.002;2022-08-18T01:26:16;20.10;99.90
25951;DHT22;13748;52.240;6.002;2022-08-18T01:28:45;20.10;99.90
25951;DHT22;13748;52.240;6.002;2022-08-18T01:31:29;20.10;99.90
25951;DHT22;13748;52.240;6.002;2022-08-18T01:33:56;20.10;99.90
25951;DHT22;13748;52.240;6.002;2022-08-18T01:36:24;20.20;99.90
25951;DHT22;13748;52.240;6.002;2022-08-18T01:38:52;20.10;99.90
25951;DHT22;13748;52.240;6.002;2022-08-18T01:41:21;20.20;99.90
25951;DHT22;13748;52.240;6.002;2022-08-18T01:43:57;20.20;99.90
25951;DHT22;13748;52.240;6.002;2022-08-18T01:46:29;20.10;99.90
25951;DHT22;13748;52.240;6.002;2022-08-18T01:48:57;20.10;99.90
25951;DHT22;13748;52.240;6.002;2022-08-18T01:51:28;20.10;99.90
25951;DHT22;13748;52.240;6.002;2022-08-18T01:54:10;20.10;99.90
25951;DHT22;13748;52.240;6.002;2022-08-18T01:56:39;20.10;99.90
25951;DHT22;13748;52.240;6.002;2022-08-18T01:59:07;20.10;99.90
25951;DHT22;13748;52.240;6.002;2022-08-18T02:01:41;20.10;99.90
25951;DHT22;13748;52.240;6.002;2022-08-18T02:04:19;20.10;99.90
25951;DHT22;13748;52.240;6.002;2022-08-18T02:07:03;20.10;99.90
25951;DHT22;13748;52.240;6.002;2022-08-18T02:09:31;20.10;99.90
25951;DHT22;13748;52.240;6.002;2022-08-18T02:12:00;20.10;99.90
25951;DHT22;13748;52.240;6.002;2022-08-18T02:15:03;20.10;99.90
25951;DHT22;13748;52.240;6.002;2022-08-18T02:17:42;20.10;99.90
25951;DHT22;13748;52.240;6.002;2022-08-18T02:20:17;20.10;99.90
25951;DHT22;13748;52.240;6.002;2022-08-18T02:22:46;20.10;99.90
25951;DHT22;13748;52.240;6.002;2022-08-18T02:25:17;20.10;99.90
25951;DHT22;13748;52.240;6.002;2022-08-18T02:28:31;20.10;99.90
25951;DHT22;13748;52.240;6.002;2022-08-18T02:31:11;20.10;99.90
25951;DHT22;13748;52.240;6.002;2022-08-18T02:33:52;20.10;99.90
25951;DHT22;13748;52.240;6.002;2022-08-18T02:36:20;20.20;99.90
25951;DHT22;13748;52.240;6.002;2022-08-18T02:38:51;20.20;99.90
25951;DHT22;13748;52.240;6.002;2022-08-18T02:41:25;20.30;99.90
25951;DHT22;13748;52.240;6.002;2022-08-18T02:44:00;20.30;99.90
25951;DHT22;13748;52.240;6.002;2022-08-18T02:46:27;20.20;99.90
25951;DHT22;13748;52.240;6.002;2022-08-18T02:49:00;20.30;99.90
25951;DHT22;13748;52.240;6.002;2022-08-18T02:51:27;20.30;99.90
25951;DHT22;13748;52.240;6.002;2022-08-18T02:53:55;20.30;99.90
25951;DHT22;13748;52.240;6.002;2022-08-18T02:56:27;20.30;99.90
25951;DHT22;13748;52.240;6.002;2022-08-18T02:59:09;20.30;99.90
25951;DHT22;13748;52.240;6.002;2022-08-18T03:01:41;20.30;99.90
25951;DHT22;13748;52.240;6.002;2022-08-18T03:04:10;20.20;99.90
25951;DHT22;13748;52.240;6.002;2022-08-18T03:06:37;20.20;99.90
25951;DHT22;13748;52.240;6.002;2022-08-18T03:09:07;20.20;99.90
25951;DHT22;13748;52.240;6.002;2022-08-18T03:11:35;20.20;99.90
25951;DHT22;13748;52.240;6.002;2022-08-18T03:14:03;20.20;99.90
25951;DHT22;13748;52.240;6.002;2022-08-18T03:16:31;20.20;99.90
25951;DHT22;13748;52.240;6.002;2022-08-18T03:19:00;20.20;99.90
25951;DHT22;13748;52.240;6.002;2022-08-18T03:21:30;20.20;99.90
25951;DHT22;13748;52.240;6.002;2022-08-18T03:23:57;20.20;99.90
25951;DHT22;13748;52.240;6.002;2022-08-18T03:26:29;20.20;99.90
25951;DHT22;13748;52.240;6.002;2022-08-18T03:28:58;20.20;99.90
25951;DHT22;13748;52.240;6.002;2022-08-18T03:31:28;20.20;99.90
25951;DHT22;13748;52.240;6.002;2022-08-18T03:33:57;20.30;99.90
25951;DHT22;13748;52.240;6.002;2022-08-18T03:36:28;20.20;99.90
25951;DHT22;13748;52.240;6.002;2022-08-18T03:39:00;20.20;99.90
25951;DHT22;13748;52.240;6.002;2022-08-18T03:41:28;20.20;99.90
25951;DHT22;13748;52.240;6.002;2022-08-18T03:44:15;20.20;99.90
25951;DHT22;13748;52.240;6.002;2022-08-18T03:46:43;20.20;99.90
25951;DHT22;13748;52.240;6.002;2022-08-18T03:49:11;20.20;99.90
25951;DHT22;13748;52.240;6.002;2022-08-18T03:51:41;20.30;99.90
25951;DHT22;13748;52.240;6.002;2022-08-18T03:54:16;20.20;99.90
25951;DHT22;13748;52.240;6.002;2022-08-18T03:56:45;20.20;99.90
25951;DHT22;13748;52.240;6.002;2022-08-18T03:59:19;20.20;99.90
25951;DHT22;13748;52.240;6.002;2022-08-18T04:01:48;20.20;99.90
25951;DHT22;13748;52.240;6.002;2022-08-18T04:04:18;20.20;99.90
25951;DHT22;13748;52.240;6.002;2022-08-18T04:06:48;20.20;99.90
25951;DHT22;13748;52.240;6.002;2022-08-18T04:09:22;20.20;99.90
25951;DHT22;13748;52.240;6.002;2022-08-18T04:11:50;20.20;99.90
25951;DHT22;13748;52.240;6.002;2022-08-18T04:14:20;20.20;99.90
25951;DHT22;13748;52.240;6.002;2022-08-18T04:16:47;20.30;99.90
25951;DHT22;13748;52.240;6.002;2022-08-18T04:19:16;20.20;99.90
25951;DHT22;13748;52.240;6.002;2022-08-18T04:21:55;20.30;99.90
25951;DHT22;13748;52.240;6.002;2022-08-18T04:24:23;20.20;99.90
25951;DHT22;13748;52.240;6.002;2022-08-18T04:26:55;20.20;99.90
25951;DHT22;13748;52.240;6.002;2022-08-18T04:29:23;20.30;99.90
25951;DHT22;13748;52.240;6.002;2022-08-18T04:31:51;20.20;99.90
25951;DHT22;13748;52.240;6.002;2022-08-18T04:34:20;20.30;99.90
25951;DHT22;13748;52.240;6.002;2022-08-18T04:36:49;20.30;99.90
25951;DHT22;13748;52.240;6.002;2022-08-18T04:39:20;20.30;99.90
25951;DHT22;13748;52.240;6.002;2022-08-18T04:41:47;20.30;99.90
25951;DHT22;13748;52.240;6.002;2022-08-18T04:44:15;20.30;99.90
25951;DHT22;13748;52.240;6.002;2022-08-18T04:46:49;20.30;99.90
25951;DHT22;13748;52.240;6.002;2022-08-18T04:49:22;20.30;99.90
25951;DHT22;13748;52.240;6.002;2022-08-18T04:51:53;20.30;99.90
25951;DHT22;13748;52.240;6.002;2022-08-18T04:54:59;20.30;99.90
25951;DHT22;13748;52.240;6.002;2022-08-18T04:57:28;20.30;99.90
25951;DHT22;13748;52.240;6.002;2022-08-18T05:00:04;20.30;99.90
25951;DHT22;13748;52.240;6.002;2022-08-18T05:02:37;20.30;99.90
25951;DHT22;13748;52.240;6.002;2022-08-18T05:05:05;20.40;99.90
25951;DHT22;13748;52.240;6.002;2022-08-18T05:07:42;20.30;99.90
25951;DHT22;13748;52.240;6.002;2022-08-18T05:10:11;20.30;99.90
25951;DHT22;13748;52.240;6.002;2022-08-18T05:12:42;20.20;99.90
25951;DHT22;13748;52.240;6.002;2022-08-18T05:15:11;20.20;99.90
25951;DHT22;13748;52.240;6.002;2022-08-18T05:17:38;20.30;99.90
25951;DHT22;13748;52.240;6.002;2022-08-18T05:20:07;20.30;99.90
25951;DHT22;13748;52.240;6.002;2022-08-18T05:22:41;20.30;99.90
25951;DHT22;13748;52.240;6.002;2022-08-18T05:25:10;20.20;99.90
25951;DHT22;13748;52.240;6.002;2022-08-18T05:27:40;20.20;99.90
25951;DHT22;13748;52.240;6.002;2022-08-18T05:30:10;20.20;99.90
25951;DHT22;13748;52.240;6.002;2022-08-18T05:32:42;20.20;99.90
25951;DHT22;13748;52.240;6.002;2022-08-18T05:35:23;20.20;99.90
25951;DHT22;13748;52.240;6.002;2022-08-18T05:40:42;20.20;99.90
25951;DHT22;13748;52.240;6.002;2022-08-18T05:43:12;20.20;99.90
25951;DHT22;13748;52.240;6.002;2022-08-18T05:45:41;20.30;99.90
25951;DHT22;13748;52.240;6.002;2022-08-18T05:48:08;20.30;99.90
25951;DHT22;13748;52.240;6.002;2022-08-18T05:50:36;20.30;99.90
25951;DHT22;13748;52.240;6.002;2022-08-18T05:53:11;20.30;99.90
25951;DHT22;13748;52.240;6.002;2022-08-18T05:55:49;20.40;99.90
25951;DHT22;13748;52.240;6.002;2022-08-18T05:58:41;20.40;99.90
25951;DHT22;13748;52.240;6.002;2022-08-18T06:01:17;20.50;99.90
25951;DHT22;13748;52.240;6.002;2022-08-18T06:03:52;20.50;99.90
25951;DHT22;13748;52.240;6.002;2022-08-18T06:06:24;20.60;99.90
25951;DHT22;13748;52.240;6.002;2022-08-18T06:09:09;20.60;99.90
25951;DHT22;13748;52.240;6.002;2022-08-18T06:11:38;20.70;99.90
25951;DHT22;13748;52.240;6.002;2022-08-18T06:14:05;20.70;99.90
25951;DHT22;13748;52.240;6.002;2022-08-18T06:16:47;20.80;99.90
25951;DHT22;13748;52.240;6.002;2022-08-18T06:24:57;20.90;99.90
25951;DHT22;13748;52.240;6.002;2022-08-18T06:33:05;21.10;99.90
25951;DHT22;13748;52.240;6.002;2022-08-18T06:44:13;22.20;99.90
25951;DHT22;13748;52.240;6.002;2022-08-18T06:46:57;22.30;99.90
25951;DHT22;13748;52.240;6.002;2022-08-18T06:49:43;22.30;99.90
25951;DHT22;13748;52.240;6.002;2022-08-18T06:52:32;22.40;99.90
25951;DHT22;13748;52.240;6.002;2022-08-18T06:55:07;22.50;99.90
25951;DHT22;13748;52.240;6.002;2022-08-18T06:57:37;22.50;99.90
25951;DHT22;13748;52.240;6.002;2022-08-18T07:03:21;22.40;99.90
25951;DHT22;13748;52.240;6.002;2022-08-18T07:08:39;22.30;99.90
25951;DHT22;13748;52.240;6.002;2022-08-18T07:11:19;22.30;99.90
25951;DHT22;13748;52.240;6.002;2022-08-18T07:13:49;22.40;99.90
25951;DHT22;13748;52.240;6.002;2022-08-18T07:16:37;22.60;99.90
25951;DHT22;13748;52.240;6.002;2022-08-18T07:19:31;22.80;99.90
25951;DHT22;13748;52.240;6.002;2022-08-18T07:22:11;23.00;99.90
25951;DHT22;13748;52.240;6.002;2022-08-18T07:24:44;23.00;99.90
25951;DHT22;13748;52.240;6.002;2022-08-18T07:27:14;23.30;99.90
25951;DHT22;13748;52.240;6.002;2022-08-18T07:30:11;23.50;99.90
25951;DHT22;13748;52.240;6.002;2022-08-18T07:32:52;23.80;99.90
25951;DHT22;13748;52.240;6.002;2022-08-18T07:35:37;24.10;99.90
25951;DHT22;13748;52.240;6.002;2022-08-18T07:38:29;24.30;99.90
25951;DHT22;13748;52.240;6.002;2022-08-18T07:41:37;24.80;99.90
25951;DHT22;13748;52.240;6.002;2022-08-18T07:47:28;26.00;99.90
25951;DHT22;13748;52.240;6.002;2022-08-18T07:49:58;26.00;99.90
25951;DHT22;13748;52.240;6.002;2022-08-18T07:55:53;25.90;99.90
25951;DHT22;13748;52.240;6.002;2022-08-18T07:59:03;26.00;99.90
25951;DHT22;13748;52.240;6.002;2022-08-18T08:01:51;26.20;99.90
25951;DHT22;13748;52.240;6.002;2022-08-18T08:04:50;26.20;99.90
25951;DHT22;13748;52.240;6.002;2022-08-18T08:07:23;26.30;99.90
25951;DHT22;13748;52.240;6.002;2022-08-18T08:13:37;27.10;99.90
25951;DHT22;13748;52.240;6.002;2022-08-18T08:22:34;28.70;99.90
25951;DHT22;13748;52.240;6.002;2022-08-18T08:25:36;28.60;99.90
25951;DHT22;13748;52.240;6.002;2022-08-18T08:28:36;28.70;99.90
25951;DHT22;13748;52.240;6.002;2022-08-18T08:31:31;28.80;99.90
25951;DHT22;13748;52.240;6.002;2022-08-18T08:34:41;28.80;99.90
25951;DHT22;13748;52.240;6.002;2022-08-18T08:40:02;28.50;99.90
25951;DHT22;13748;52.240;6.002;2022-08-18T08:42:49;28.20;99.90
25951;DHT22;13748;52.240;6.002;2022-08-18T08:45:26;27.90;99.90
25951;DHT22;13748;52.240;6.002;2022-08-18T08:51:00;28.20;99.90
25951;DHT22;13748;52.240;6.002;2022-08-18T08:53:33;28.30;99.90
25951;DHT22;13748;52.240;6.002;2022-08-18T08:56:06;28.50;99.90
25951;DHT22;13748;52.240;6.002;2022-08-18T08:58:48;28.90;99.90
25951;DHT22;13748;52.240;6.002;2022-08-18T09:01:54;29.00;99.90
25951;DHT22;13748;52.240;6.002;2022-08-18T09:07:38;29.00;99.90
25951;DHT22;13748;52.240;6.002;2022-08-18T09:13:07;29.30;99.90
25951;DHT22;13748;52.240;6.002;2022-08-18T09:19:06;29.60;99.90
25951;DHT22;13748;52.240;6.002;2022-08-18T09:22:53;29.70;99.90
25951;DHT22;13748;52.240;6.002;2022-08-18T09:24:56;29.70;99.90
25951;DHT22;13748;52.240;6.002;2022-08-18T09:27:44;29.50;99.90
25951;DHT22;13748;52.240;6.002;2022-08-18T09:31:12;29.10;99.90
25951;DHT22;13748;52.240;6.002;2022-08-18T09:36:47;28.20;99.90
25951;DHT22;13748;52.240;6.002;2022-08-18T09:39:35;27.80;99.90
25951;DHT22;13748;52.240;6.002;2022-08-18T09:42:31;27.60;99.90
25951;DHT22;13748;52.240;6.002;2022-08-18T09:50:59;28.60;99.90
25951;DHT22;13748;52.240;6.002;2022-08-18T10:02:03;29.10;99.90
25951;DHT22;13748;52.240;6.002;2022-08-18T10:04:44;29.00;99.90
25951;DHT22;13748;52.240;6.002;2022-08-18T10:07:31;29.20;99.90
25951;DHT22;13748;52.240;6.002;2022-08-18T10:21:17;29.40;99.90
25951;DHT22;13748;52.240;6.002;2022-08-18T10:26:58;28.70;99.90
25951;DHT22;13748;52.240;6.002;2022-08-18T10:34:40;28.40;99.90
25951;DHT22;13748;52.240;6.002;2022-08-18T10:37:51;28.40;99.90
25951;DHT22;13748;52.240;6.002;2022-08-18T10:40:18;28.50;99.90
25951;DHT22;13748;52.240;6.002;2022-08-18T10:43:21;28.80;99.90
25951;DHT22;13748;52.240;6.002;2022-08-18T10:46:20;28.80;99.90
25951;DHT22;13748;52.240;6.002;2022-08-18T10:49:16;28.60;99.90
25951;DHT22;13748;52.240;6.002;2022-08-18T10:51:52;28.70;99.90
25951;DHT22;13748;52.240;6.002;2022-08-18T11:00:08;28.20;99.90
25951;DHT22;13748;52.240;6.002;2022-08-18T11:03:08;28.10;99.90
25951;DHT22;13748;52.240;6.002;2022-08-18T11:06:05;28.10;99.90
25951;DHT22;13748;52.240;6.002;2022-08-18T11:08:49;28.00;99.90
25951;DHT22;13748;52.240;6.002;2022-08-18T11:11:42;27.90;99.90
25951;DHT22;13748;52.240;6.002;2022-08-18T11:19:53;27.90;99.90
25951;DHT22;13748;52.240;6.002;2022-08-18T11:22:32;27.70;99.90
25951;DHT22;13748;52.240;6.002;2022-08-18T11:25:25;27.60;99.90
25951;DHT22;13748;52.240;6.002;2022-08-18T11:27:55;27.50;99.90
25951;DHT22;13748;52.240;6.002;2022-08-18T11:30:29;27.30;99.90
25951;DHT22;13748;52.240;6.002;2022-08-18T11:33:01;27.10;99.90
25951;DHT22;13748;52.240;6.002;2022-08-18T11:35:44;26.90;99.90
25951;DHT22;13748;52.240;6.002;2022-08-18T11:38:14;26.70;99.90
25951;DHT22;13748;52.240;6.002;2022-08-18T11:40:51;26.60;99.90
25951;DHT22;13748;52.240;6.002;2022-08-18T11:43:39;26.40;99.90
25951;DHT22;13748;52.240;6.002;2022-08-18T11:46:28;26.30;99.90
25951;DHT22;13748;52.240;6.002;2022-08-18T11:49:00;26.20;99.90
25951;DHT22;13748;52.240;6.002;2022-08-18T11:51:32;26.00;99.90
25951;DHT22;13748;52.240;6.002;2022-08-18T11:56:38;25.80;99.90
25951;DHT22;13748;52.240;6.002;2022-08-18T12:02:16;25.60;99.90
25951;DHT22;13748;52.240;6.002;2022-08-18T12:04:49;25.40;99.90
25951;DHT22;13748;52.240;6.002;2022-08-18T12:07:34;25.30;99.90
25951;DHT22;13748;52.240;6.002;2022-08-18T12:10:27;25.20;99.90
25951;DHT22;13748;52.240;6.002;2022-08-18T12:12:56;25.10;99.90
25951;DHT22;13748;52.240;6.002;2022-08-18T12:15:34;25.00;99.90
25951;DHT22;13748;52.240;6.002;2022-08-18T12:18:13;25.00;99.90
25951;DHT22;13748;52.240;6.002;2022-08-18T12:20:55;25.00;99.90
25951;DHT22;13748;52.240;6.002;2022-08-18T12:23:31;25.00;99.90
25951;DHT22;13748;52.240;6.002;2022-08-18T12:26:14;25.00;99.90
25951;DHT22;13748;52.240;6.002;2022-08-18T12:29:02;25.00;99.90
25951;DHT22;13748;52.240;6.002;2022-08-18T12:31:29;25.00;99.90
25951;DHT22;13748;52.240;6.002;2022-08-18T12:34:20;25.00;99.90
25951;DHT22;13748;52.240;6.002;2022-08-18T12:36:55;24.90;99.90
25951;DHT22;13748;52.240;6.002;2022-08-18T12:39:23;24.90;99.90
25951;DHT22;13748;52.240;6.002;2022-08-18T12:41:50;24.80;99.90
25951;DHT22;13748;52.240;6.002;2022-08-18T12:44:19;24.70;99.90
25951;DHT22;13748;52.240;6.002;2022-08-18T12:46:53;24.70;99.90
25951;DHT22;13748;52.240;6.002;2022-08-18T12:49:23;24.70;99.90
25951;DHT22;13748;52.240;6.002;2022-08-18T12:51:52;24.60;99.90
25951;DHT22;13748;52.240;6.002;2022-08-18T12:54:21;24.60;99.90
25951;DHT22;13748;52.240;6.002;2022-08-18T12:56:53;24.50;99.90
25951;DHT22;13748;52.240;6.002;2022-08-18T12:59:21;24.50;99.90
25951;DHT22;13748;52.240;6.002;2022-08-18T13:01:50;24.60;99.90
25951;DHT22;13748;52.240;6.002;2022-08-18T13:04:24;24.60;99.90
25951;DHT22;13748;52.240;6.002;2022-08-18T13:07:12;24.60;99.90
25951;DHT22;13748;52.240;6.002;2022-08-18T13:09:45;24.60;99.90
25951;DHT22;13748;52.240;6.002;2022-08-18T13:12:20;24.70;99.90
25951;DHT22;13748;52.240;6.002;2022-08-18T13:14:47;24.90;99.90
25951;DHT22;13748;52.240;6.002;2022-08-18T13:17:17;25.00;99.90
25951;DHT22;13748;52.240;6.002;2022-08-18T13:20:00;25.10;99.90
25951;DHT22;13748;52.240;6.002;2022-08-18T13:22:27;25.20;99.90
25951;DHT22;13748;52.240;6.002;2022-08-18T13:25:00;25.30;99.90
25951;DHT22;13748;52.240;6.002;2022-08-18T13:27:29;25.50;99.90
25951;DHT22;13748;52.240;6.002;2022-08-18T13:30:09;25.60;99.90
25951;DHT22;13748;52.240;6.002;2022-08-18T13:32:59;25.70;99.90
25951;DHT22;13748;52.240;6.002;2022-08-18T13:35:37;25.90;99.90
25951;DHT22;13748;52.240;6.002;2022-08-18T13:38:15;26.00;99.90
25951;DHT22;13748;52.240;6.002;2022-08-18T13:40:53;26.20;99.90
25951;DHT22;13748;52.240;6.002;2022-08-18T13:43:26;26.10;99.90
25951;DHT22;13748;52.240;6.002;2022-08-18T13:45:55;26.30;99.90
25951;DHT22;13748;52.240;6.002;2022-08-18T13:48:23;26.40;99.90
25951;DHT22;13748;52.240;6.002;2022-08-18T13:50:55;26.40;99.90
25951;DHT22;13748;52.240;6.002;2022-08-18T13:53:27;26.60;99.90
25951;DHT22;13748;52.240;6.002;2022-08-18T13:55:57;26.60;99.90
25951;DHT22;13748;52.240;6.002;2022-08-18T13:58:26;26.80;99.90
25951;DHT22;13748;52.240;6.002;2022-08-18T14:01:01;27.00;99.90
25951;DHT22;13748;52.240;6.002;2022-08-18T14:03:49;27.10;99.90
25951;DHT22;13748;52.240;6.002;2022-08-18T14:06:17;27.20;99.90
25951;DHT22;13748;52.240;6.002;2022-08-18T14:08:50;27.30;99.90
25951;DHT22;13748;52.240;6.002;2022-08-18T14:11:17;27.50;99.90
25951;DHT22;13748;52.240;6.002;2022-08-18T14:13:49;27.70;99.90
25951;DHT22;13748;52.240;6.002;2022-08-18T14:16:23;28.00;99.90
25951;DHT22;13748;52.240;6.002;2022-08-18T14:18:53;28.00;99.90
25951;DHT22;13748;52.240;6.002;2022-08-18T14:21:51;28.20;99.90
25951;DHT22;13748;52.240;6.002;2022-08-18T14:24:39;28.70;99.90
25951;DHT22;13748;52.240;6.002;2022-08-18T14:27:29;28.40;99.90
25951;DHT22;13748;52.240;6.002;2022-08-18T14:30:10;28.30;99.90
25951;DHT22;13748;52.240;6.002;2022-08-18T14:32:40;28.30;99.90
25951;DHT22;13748;52.240;6.002;2022-08-18T14:35:15;28.30;99.90
25951;DHT22;13748;52.240;6.002;2022-08-18T14:38:03;28.10;99.90
25951;DHT22;13748;52.240;6.002;2022-08-18T14:40:31;28.10;99.90
25951;DHT22;13748;52.240;6.002;2022-08-18T14:42:59;27.90;99.90
25951;DHT22;13748;52.240;6.002;2022-08-18T14:45:32;27.80;99.90
25951;DHT22;13748;52.240;6.002;2022-08-18T14:48:05;27.60;99.90
25951;DHT22;13748;52.240;6.002;2022-08-18T14:50:34;27.60;99.90
25951;DHT22;13748;52.240;6.002;2022-08-18T14:53:01;27.70;99.90
25951;DHT22;13748;52.240;6.002;2022-08-18T14:55:28;27.80;99.90
25951;DHT22;13748;52.240;6.002;2022-08-18T14:57:56;27.70;99.90
25951;DHT22;13748;52.240;6.002;2022-08-18T15:00:26;27.50;99.90
25951;DHT22;13748;52.240;6.002;2022-08-18T15:02:53;27.40;99.90
25951;DHT22;13748;52.240;6.002;2022-08-18T15:05:20;27.40;99.90
25951;DHT22;13748;52.240;6.002;2022-08-18T15:07:51;27.40;99.90
25951;DHT22;13748;52.240;6.002;2022-08-18T15:10:19;27.40;99.90
25951;DHT22;13748;52.240;6.002;2022-08-18T15:12:53;27.50;99.90
25951;DHT22;13748;52.240;6.002;2022-08-18T15:15:21;27.50;99.90
25951;DHT22;13748;52.240;6.002;2022-08-18T15:17:50;27.60;99.90
25951;DHT22;13748;52.240;6.002;2022-08-18T15:20:19;27.60;99.90
25951;DHT22;13748;52.240;6.002;2022-08-18T15:22:59;27.60;99.90
25951;DHT22;13748;52.240;6.002;2022-08-18T15:25:58;27.60;99.90
25951;DHT22;13748;52.240;6.002;2022-08-18T15:28:25;27.50;99.90
25951;DHT22;13748;52.240;6.002;2022-08-18T15:30:53;27.60;99.90
25951;DHT22;13748;52.240;6.002;2022-08-18T15:33:40;27.70;99.90
25951;DHT22;13748;52.240;6.002;2022-08-18T15:36:08;27.80;99.90
25951;DHT22;13748;52.240;6.002;2022-08-18T15:38:36;27.70;99.90
25951;DHT22;13748;52.240;6.002;2022-08-18T15:41:04;27.50;99.90
25951;DHT22;13748;52.240;6.002;2022-08-18T15:43:35;27.40;99.90
25951;DHT22;13748;52.240;6.002;2022-08-18T15:46:11;27.30;99.90
25951;DHT22;13748;52.240;6.002;2022-08-18T15:48:42;27.30;99.90
25951;DHT22;13748;52.240;6.002;2022-08-18T15:51:09;27.30;99.90
25951;DHT22;13748;52.240;6.002;2022-08-18T15:53:38;27.40;99.90
25951;DHT22;13748;52.240;6.002;2022-08-18T15:56:16;27.30;99.90
25951;DHT22;13748;52.240;6.002;2022-08-18T15:58:47;27.60;99.90
25951;DHT22;13748;52.240;6.002;2022-08-18T16:01:16;27.40;99.90
25951;DHT22;13748;52.240;6.002;2022-08-18T16:03:57;27.60;99.90
25951;DHT22;13748;52.240;6.002;2022-08-18T16:06:25;27.50;99.90
25951;DHT22;13748;52.240;6.002;2022-08-18T16:08:58;27.50;99.90
25951;DHT22;13748;52.240;6.002;2022-08-18T16:11:26;27.40;99.90
25951;DHT22;13748;52.240;6.002;2022-08-18T16:13:58;27.40;99.90
25951;DHT22;13748;52.240;6.002;2022-08-18T16:16:32;27.40;99.90
25951;DHT22;13748;52.240;6.002;2022-08-18T16:19:04;27.90;99.90
25951;DHT22;13748;52.240;6.002;2022-08-18T16:21:34;27.30;99.90
25951;DHT22;13748;52.240;6.002;2022-08-18T16:24:08;27.60;99.90
25951;DHT22;13748;52.240;6.002;2022-08-18T16:26:44;27.40;99.90
25951;DHT22;13748;52.240;6.002;2022-08-18T16:29:14;27.00;99.90
25951;DHT22;13748;52.240;6.002;2022-08-18T16:31:43;27.20;99.90
25951;DHT22;13748;52.240;6.002;2022-08-18T16:34:13;27.20;99.90
25951;DHT22;13748;52.240;6.002;2022-08-18T16:36:50;27.20;99.90
25951;DHT22;13748;52.240;6.002;2022-08-18T16:39:17;27.20;99.90
25951;DHT22;13748;52.240;6.002;2022-08-18T16:41:56;27.30;99.90
25951;DHT22;13748;52.240;6.002;2022-08-18T16:44:52;27.30;99.90
25951;DHT22;13748;52.240;6.002;2022-08-18T16:47:44;27.30;99.90
25951;DHT22;13748;52.240;6.002;2022-08-18T16:50:16;27.20;99.90
25951;DHT22;13748;52.240;6.002;2022-08-18T16:53:13;27.10;99.90
25951;DHT22;13748;52.240;6.002;2022-08-18T16:56:01;27.00;99.90
25951;DHT22;13748;52.240;6.002;2022-08-18T16:58:45;26.90;99.90
25951;DHT22;13748;52.240;6.002;2022-08-18T17:01:54;26.90;99.90
25951;DHT22;13748;52.240;6.002;2022-08-18T17:08:08;26.90;99.90
25951;DHT22;13748;52.240;6.002;2022-08-18T17:10:35;26.70;99.90
25951;DHT22;13748;52.240;6.002;2022-08-18T17:13:04;26.70;99.90
25951;DHT22;13748;52.240;6.002;2022-08-18T17:15:34;26.50;99.90
25951;DHT22;13748;52.240;6.002;2022-08-18T17:21:23;26.40;99.90
25951;DHT22;13748;52.240;6.002;2022-08-18T17:24:11;26.40;99.90
25951;DHT22;13748;52.240;6.002;2022-08-18T17:33:24;26.00;99.90
25951;DHT22;13748;52.240;6.002;2022-08-18T17:40:29;25.90;99.90
25951;DHT22;13748;52.240;6.002;2022-08-18T17:42:56;25.80;99.90
25951;DHT22;13748;52.240;6.002;2022-08-18T17:45:28;25.80;99.90
25951;DHT22;13748;52.240;6.002;2022-08-18T17:48:09;25.70;99.90
25951;DHT22;13748;52.240;6.002;2022-08-18T17:50:55;25.70;99.90
25951;DHT22;13748;52.240;6.002;2022-08-18T17:53:46;25.60;99.90
25951;DHT22;13748;52.240;6.002;2022-08-18T17:56:19;25.60;99.90
25951;DHT22;13748;52.240;6.002;2022-08-18T17:59:10;25.60;99.90
25951;DHT22;13748;52.240;6.002;2022-08-18T18:02:13;25.50;99.90
25951;DHT22;13748;52.240;6.002;2022-08-18T18:04:58;25.50;99.90
25951;DHT22;13748;52.240;6.002;2022-08-18T18:10:00;25.50;99.90
25951;DHT22;13748;52.240;6.002;2022-08-18T18:12:30;25.50;99.90
25951;DHT22;13748;52.240;6.002;2022-08-18T18:14:59;25.50;99.90
25951;DHT22;13748;52.240;6.002;2022-08-18T18:17:34;25.40;99.90
25951;DHT22;13748;52.240;6.002;2022-08-18T18:20:34;25.40;99.90
25951;DHT22;13748;52.240;6.002;2022-08-18T18:23:18;25.30;99.90
25951;DHT22;13748;52.240;6.002;2022-08-18T18:25:47;25.30;99.90
25951;DHT22;13748;52.240;6.002;2022-08-18T18:28:43;25.20;99.90
25951;DHT22;13748;52.240;6.002;2022-08-18T18:31:24;25.20;99.90
25951;DHT22;13748;52.240;6.002;2022-08-18T18:33:59;25.10;99.90
25951;DHT22;13748;52.240;6.002;2022-08-18T18:36:42;25.00;99.90
25951;DHT22;13748;52.240;6.002;2022-08-18T18:39:19;25.00;99.90
25951;DHT22;13748;52.240;6.002;2022-08-18T18:41:51;24.90;99.90
25951;DHT22;13748;52.240;6.002;2022-08-18T18:44:28;24.80;99.90
25951;DHT22;13748;52.240;6.002;2022-08-18T18:47:08;24.70;99.90
25951;DHT22;13748;52.240;6.002;2022-08-18T18:50:02;24.60;99.90